LFSN 200030Z AUTO 09002KT CAVOK 18/16 Q1020 LFSN 200000Z AUTO VRB02KT CAVOK 18/17 Q1021 LFSN 192330Z AUTO 11002KT CAVOK 19/17 Q1021 LFSN 192300Z AUTO VRB02KT CAVOK 21/18 Q1021 LFSN 192230Z AUTO 00000KT CAVOK 21/18 Q1021 LFSN 192200Z AUTO VRB01KT CAVOK 22/18 Q1021 LFSN 192130Z AUTO 05004KT CAVOK 22/18 Q1021 LFSN 192100Z AUTO 06003KT CAVOK 22/18 Q1021 LFSN 192030Z AUTO 03003KT 350V080 CAVOK 22/17 Q1021 LFSN 192000Z AUTO VRB02KT CAVOK 23/16 Q1020 LFSN 191930Z AUTO VRB01KT CAVOK 25/16 Q1020 LFSN 191900Z AUTO 21005KT CAVOK 26/16 Q1020 LFSN 191830Z AUTO 18004KT 140V210 9999 //////CB 27/17 Q1020 LFSN 191800Z AUTO 20006KT CAVOK 27/17 Q1019 LFSN 191730Z AUTO 21008KT 170V230 9999 FEW029/// //////CB 28/17 Q1019 LFSN 191700Z AUTO 20010KT 9999 FEW046/// BKN120/// //////CB 29/16 Q1019 LFSN 191630Z AUTO 21010KT 180V240 9999 //////CB 30/16 Q1019 LFSN 191600Z AUTO 21009KT 9999 FEW033/// SCT076/// BKN190/// //////TCU 30/18 Q1019 LFSN 191530Z AUTO 18007KT 140V220 9999 //////CB 28/17 Q1019 LFSN 191500Z AUTO 15005KT 100V210 9999 //////CB 28/17 Q1019 LFSN 191430Z AUTO 05004KT 350V090 9999 //////CB 28/16 Q1019 LFSN 191400Z AUTO 30012G27KT 230V350 9999 TS //////CB 25/14 Q1020 LFSN 191330Z AUTO 20010KT 160V250 9999 VCTS ///CB 29/17 Q1019 LFSN 191300Z AUTO 18010KT 150V210 9000 //////CB 30/17 Q1019 LFSN 191230Z AUTO 19011KT 150V230 9000 NSC 30/17 Q1020 LFSN 191200Z AUTO 19011KT 140V230 CAVOK 29/17 Q1020 LFSN 191130Z AUTO 21010KT 170V230 CAVOK 29/18 Q1020 LFSN 191100Z AUTO 19010KT 150V220 CAVOK 28/17 Q1020 LFSN 191030Z AUTO 18009KT 120V220 CAVOK 27/18 Q1020 LFSN 191000Z AUTO 18012KT CAVOK 27/17 Q1020 LFSN 190930Z AUTO 18008KT 130V230 CAVOK 26/16 Q1020 LFSN 190900Z AUTO 18009KT 150V210 CAVOK 24/17 Q1020 LFSN 190830Z AUTO 18009KT 9999 //////CB 22/16 Q1020 LFSN 190800Z AUTO 14004KT 110V190 9999 TS //////CB 20/16 Q1020 LFSN 190730Z AUTO 16005KT 130V200 9999 VCTS ///CB 21/16 Q1020 LFSN 190700Z AUTO VRB02KT 9999 //////TCU 20/16 Q1020 LFSN 190630Z AUTO 10003KT CAVOK 18/15 Q1020 LFSN 190600Z AUTO 10004KT CAVOK 17/14 Q1020 LFSN 190530Z AUTO VRB02KT CAVOK 16/14 Q1019 LFSN 190500Z AUTO 12002KT CAVOK 14/12 Q1019 LFSN 190430Z AUTO 00000KT CAVOK 13/12 Q1019 LFSN 190400Z AUTO VRB01KT CAVOK 13/12 Q1019 LFSN 190330Z AUTO 11002KT CAVOK 13/12 Q1019 LFSN 190300Z AUTO VRB02KT CAVOK 13/12 Q1019 LFSN 190230Z AUTO VRB02KT CAVOK 14/12 Q1019 LFSN 190200Z AUTO 11003KT CAVOK 14/12 Q1019 LFSN 190130Z AUTO 13003KT CAVOK 14/12 Q1019 LFSN 190100Z AUTO 13002KT CAVOK 15/13 Q1019 LFSN 190030Z AUTO 11004KT CAVOK 15/12 Q1019 LFSN 190000Z AUTO 15002KT CAVOK 17/13 Q1019 LFSN 182330Z AUTO 10003KT CAVOK 16/13 Q1019 LFSN 182300Z AUTO 11002KT CAVOK 16/13 Q1019 LFSN 182230Z AUTO 11003KT CAVOK 17/13 Q1019 LFSN 182200Z AUTO 00000KT CAVOK 18/14 Q1019 LFSN 182130Z AUTO 04002KT CAVOK 20/14 Q1019 LFSN 182100Z AUTO 05002KT CAVOK 20/14 Q1019 LFSN 182030Z AUTO 06004KT CAVOK 21/15 Q1019 LFSN 182000Z AUTO 04005KT CAVOK 21/15 Q1019 LFSN 181930Z AUTO 05006KT CAVOK 22/15 Q1019 LFSN 181900Z AUTO 03004KT CAVOK 23/16 Q1019 LFSN 181830Z AUTO 05006KT CAVOK 24/15 Q1019 LFSN 181800Z AUTO 06006KT CAVOK 26/16 Q1019 LFSN 181730Z AUTO 06006KT CAVOK 27/15 Q1019 LFSN 181700Z AUTO 04007KT CAVOK 28/14 Q1019 LFSN 181630Z AUTO 05006KT CAVOK 28/14 Q1019 LFSN 181600Z AUTO 07005KT 050V160 CAVOK 28/14 Q1019 LFSN 181530Z AUTO VRB03KT CAVOK 29/15 Q1019 LFSN 181500Z AUTO VRB01KT CAVOK 29/12 Q1020 LFSN 181430Z AUTO VRB03KT CAVOK 29/12 Q1020 LFSN 181400Z AUTO VRB03KT CAVOK 29/11 Q1020 LFSN 181330Z AUTO 10005KT 070V150 CAVOK 29/11 Q1020 LFSN 181300Z AUTO 09005KT 040V200 CAVOK 29/12 Q1020

METAR Messwerte "NANCY/ESSEY" LFSN

Zurück zur Übersicht

Ortsname
Ländercode / m ü. NN
Zeit Temperatur Taupunkt Rel.
Luftfeuchte
Luftdruck:
Altimeter
NN
Station
Wind in Beaufort
(Knoten)
Sichtweite
(Meter)
Wolken
(Meter über Grund)
Wettererscheinung
NANCY/ESSEY
FR 214
Fr 20.05. 02:30181688 %1020
1020
994
O 1 (2)>= 10000Nicht signifikant 
NANCY/ESSEY
FR 214
Fr 20.05. 02:00181794 %1021
1021
995
Uml 1 (2)>= 10000Nicht signifikant 
NANCY/ESSEY
FR 214
Fr 20.05. 01:30191788 %1021
1021
995
OSO 1 (2)>= 10000Nicht signifikant 
NANCY/ESSEY
FR 214
Fr 20.05. 01:00211883 %1021
1021
995
Uml 1 (2)>= 10000Nicht signifikant 
NANCY/ESSEY
FR 214
Fr 20.05. 00:30211883 %1021
1021
995
Windstill>= 10000Nicht signifikant 
NANCY/ESSEY
FR 214
Fr 20.05. 00:00221878 %1021
1020
995
Uml 1 (1)>= 10000Nicht signifikant 
NANCY/ESSEY
FR 214
Do 19.05. 23:30221878 %1021
1020
995
NO 2 (4)>= 10000Nicht signifikant 
NANCY/ESSEY
FR 214
Do 19.05. 23:00221878 %1021
1020
995
ONO 2 (3)>= 10000Nicht signifikant 
NANCY/ESSEY
FR 214
Do 19.05. 22:30221773 %1021
1020
995
NNO 2 (3)
N - O
>= 10000Nicht signifikant 
NANCY/ESSEY
FR 214
Do 19.05. 22:00231665 %1020
1019
994
Uml 1 (2)>= 10000Nicht signifikant 
NANCY/ESSEY
FR 214
Do 19.05. 21:30251657 %1020
1019
994
Uml 1 (1)>= 10000Nicht signifikant 
NANCY/ESSEY
FR 214
Do 19.05. 21:00261654 %1020
1019
994
SSW 2 (5)>= 10000Nicht signifikant 
NANCY/ESSEY
FR 214
Do 19.05. 20:30271754 %1020
1019
994
S 2 (4)
SO - SSW
>= 10000  
NANCY/ESSEY
FR 214
Do 19.05. 20:00271754 %1019
1018
993
SSW 2 (6)>= 10000Nicht signifikant 
NANCY/ESSEY
FR 214
Do 19.05. 19:30281751 %1019
1018
993
SSW 3 (8)
S - SW
>= 10000Leicht bewölkt (880) 
NANCY/ESSEY
FR 214
Do 19.05. 19:00291645 %1019
1018
993
SSW 3 (10)>= 10000Stark bewölkt (3700)
Leicht bewölkt (1400)
 
NANCY/ESSEY
FR 214
Do 19.05. 18:30301643 %1019
1018
993
SSW 3 (10)
S - WSW
>= 10000  
NANCY/ESSEY
FR 214
Do 19.05. 18:00301849 %1019
1018
993
SSW 3 (9)>= 10000Stark bewölkt (5800)
Wolkig (2300)
Leicht bewölkt (1000)
 
NANCY/ESSEY
FR 214
Do 19.05. 17:30281751 %1019
1018
993
S 3 (7)
SO - SW
>= 10000  
NANCY/ESSEY
FR 214
Do 19.05. 17:00281751 %1019
1018
993
SSO 2 (5)
O - SSW
>= 10000  
NANCY/ESSEY
FR 214
Do 19.05. 16:30281648 %1019
1018
993
NO 2 (4)
N - O
>= 10000  
NANCY/ESSEY
FR 214
Do 19.05. 16:00251450 %1020
1019
994
WNW 4 (12) - 7 (27)
SW - N
>= 10000  
NANCY/ESSEY
FR 214
Do 19.05. 15:30291748 %1019
1018
993
SSW 3 (10)
SSO - WSW
>= 10000  
NANCY/ESSEY
FR 214
Do 19.05. 15:00301746 %1019
1018
993
S 3 (10)
SSO - SSW
9000  
NANCY/ESSEY
FR 214
Do 19.05. 14:30301746 %1020
1019
994
S 4 (11)
SSO - SW
9000Nicht signifikant 
NANCY/ESSEY
FR 214
Do 19.05. 14:00291748 %1020
1019
994
S 4 (11)
SO - SW
>= 10000Nicht signifikant 
NANCY/ESSEY
FR 214
Do 19.05. 13:30291852 %1020
1019
994
SSW 3 (10)
S - SW
>= 10000Nicht signifikant 
NANCY/ESSEY
FR 214
Do 19.05. 13:00281751 %1020
1019
994
S 3 (10)
SSO - SW
>= 10000Nicht signifikant 
NANCY/ESSEY
FR 214
Do 19.05. 12:30271858 %1020
1019
994
S 3 (9)
OSO - SW
>= 10000Nicht signifikant 
NANCY/ESSEY
FR 214
Do 19.05. 12:00271754 %1020
1019
994
S 4 (12)>= 10000Nicht signifikant 
NANCY/ESSEY
FR 214
Do 19.05. 11:30261654 %1020
1019
994
S 3 (8)
SO - SW
>= 10000Nicht signifikant 
NANCY/ESSEY
FR 214
Do 19.05. 11:00241765 %1020
1019
994
S 3 (9)
SSO - SSW
>= 10000Nicht signifikant 
NANCY/ESSEY
FR 214
Do 19.05. 10:30221669 %1020
1019
994
S 3 (9)>= 10000  
NANCY/ESSEY
FR 214
Do 19.05. 10:00201678 %1020
1020
994
SO 2 (4)
OSO - S
>= 10000  
NANCY/ESSEY
FR 214
Do 19.05. 09:30211673 %1020
1020
994
SSO 2 (5)
SO - SSW
>= 10000  
NANCY/ESSEY
FR 214
Do 19.05. 09:00201678 %1020
1020
994
Uml 1 (2)>= 10000  
NANCY/ESSEY
FR 214
Do 19.05. 08:30181583 %1020
1020
994
O 2 (3)>= 10000Nicht signifikant 
NANCY/ESSEY
FR 214
Do 19.05. 08:00171482 %1020
1020
994
O 2 (4)>= 10000Nicht signifikant 
NANCY/ESSEY
FR 214
Do 19.05. 07:30161488 %1019
1019
993
Uml 1 (2)>= 10000Nicht signifikant 
NANCY/ESSEY
FR 214
Do 19.05. 07:00141288 %1019
1019
993
OSO 1 (2)>= 10000Nicht signifikant 
NANCY/ESSEY
FR 214
Do 19.05. 06:30131294 %1019
1019
993
Windstill>= 10000Nicht signifikant 
NANCY/ESSEY
FR 214
Do 19.05. 06:00131294 %1019
1019
993
Uml 1 (1)>= 10000Nicht signifikant 
NANCY/ESSEY
FR 214
Do 19.05. 05:30131294 %1019
1019
993
OSO 1 (2)>= 10000Nicht signifikant 
NANCY/ESSEY
FR 214
Do 19.05. 05:00131294 %1019
1019
993
Uml 1 (2)>= 10000Nicht signifikant 
NANCY/ESSEY
FR 214
Do 19.05. 04:30141288 %1019
1019
993
Uml 1 (2)>= 10000Nicht signifikant 
NANCY/ESSEY
FR 214
Do 19.05. 04:00141288 %1019
1019
993
OSO 2 (3)>= 10000Nicht signifikant 
NANCY/ESSEY
FR 214
Do 19.05. 03:30141288 %1019
1019
993
SO 2 (3)>= 10000Nicht signifikant 
NANCY/ESSEY
FR 214
Do 19.05. 03:00151388 %1019
1019
993
SO 1 (2)>= 10000Nicht signifikant 
NANCY/ESSEY
FR 214
Do 19.05. 02:30151282 %1019
1019
993
OSO 2 (4)>= 10000Nicht signifikant 
NANCY/ESSEY
FR 214
Do 19.05. 02:00171377 %1019
1019
993
SSO 1 (2)>= 10000Nicht signifikant 
NANCY/ESSEY
FR 214
Do 19.05. 01:30161382 %1019
1019
993
O 2 (3)>= 10000Nicht signifikant 
NANCY/ESSEY
FR 214
Do 19.05. 01:00161382 %1019
1019
993
OSO 1 (2)>= 10000Nicht signifikant 
NANCY/ESSEY
FR 214
Do 19.05. 00:30171377 %1019
1019
993
OSO 2 (3)>= 10000Nicht signifikant 
NANCY/ESSEY
FR 214
Do 19.05. 00:00181477 %1019
1019
993
Windstill>= 10000Nicht signifikant 
NANCY/ESSEY
FR 214
Mi 18.05. 23:30201468 %1019
1019
993
NO 1 (2)>= 10000Nicht signifikant 
NANCY/ESSEY
FR 214
Mi 18.05. 23:00201468 %1019
1019
993
NO 1 (2)>= 10000Nicht signifikant 
NANCY/ESSEY
FR 214
Mi 18.05. 22:30211569 %1019
1019
993
ONO 2 (4)>= 10000Nicht signifikant 
NANCY/ESSEY
FR 214
Mi 18.05. 22:00211569 %1019
1019
993
NO 2 (5)>= 10000Nicht signifikant 
NANCY/ESSEY
FR 214
Mi 18.05. 21:30221565 %1019
1018
993
NO 2 (6)>= 10000Nicht signifikant 
NANCY/ESSEY
FR 214
Mi 18.05. 21:00231665 %1019
1018
993
NNO 2 (4)>= 10000Nicht signifikant 
NANCY/ESSEY
FR 214
Mi 18.05. 20:30241557 %1019
1018
993
NO 2 (6)>= 10000Nicht signifikant 
NANCY/ESSEY
FR 214
Mi 18.05. 20:00261654 %1019
1018
993
ONO 2 (6)>= 10000Nicht signifikant 
NANCY/ESSEY
FR 214
Mi 18.05. 19:30271548 %1019
1018
993
ONO 2 (6)>= 10000Nicht signifikant 
NANCY/ESSEY
FR 214
Mi 18.05. 19:00281442 %1019
1018
993
NO 3 (7)>= 10000Nicht signifikant 
NANCY/ESSEY
FR 214
Mi 18.05. 18:30281442 %1019
1018
993
NO 2 (6)>= 10000Nicht signifikant 
NANCY/ESSEY
FR 214
Mi 18.05. 18:00281442 %1019
1018
993
ONO 2 (5)
NO - SSO
>= 10000Nicht signifikant 
NANCY/ESSEY
FR 214
Mi 18.05. 17:30291543 %1019
1018
993
Uml 2 (3)>= 10000Nicht signifikant 
NANCY/ESSEY
FR 214
Mi 18.05. 17:00291235 %1020
1019
994
Uml 1 (1)>= 10000Nicht signifikant 
NANCY/ESSEY
FR 214
Mi 18.05. 16:30291235 %1020
1019
994
Uml 2 (3)>= 10000Nicht signifikant 
NANCY/ESSEY
FR 214
Mi 18.05. 16:00291133 %1020
1019
994
Uml 2 (3)>= 10000Nicht signifikant 
NANCY/ESSEY
FR 214
Mi 18.05. 15:30291133 %1020
1019
994
O 2 (5)
ONO - SSO
>= 10000Nicht signifikant 
NANCY/ESSEY
FR 214
Mi 18.05. 15:00291235 %1020
1019
994
O 2 (5)
NO - SSW
>= 10000Nicht signifikant 

Altimeter: Einstellung am Altimeter (Höhenmesser), die Höhe 0 muss auf diesen Luftdruckwert zeigen, damit das Gerät die Stationshöhe richtig anzeigt.

NN: Luftdruck reduziert auf "Normal Null", auf Meereshöhe, dieser von der Temperatur abhängige Wert wird bisweilen unkorrekt einfach als "Luftdruck" bezeichnet. Eigentlich nur eine fiktive Größe, die es erlaubt, Stationen auf unterschiedlichen Höhen miteinander zu vergleichen.

Station: Realer Luftdruck an der Station.